Time;durP1;ratioP1;P1;durP2;ratioP2;P2;SDS_P1;SDS_P2;PMS_P1;PMS_P2;Temp;Humidity;BMP_temperature;BMP_pressure;BME280_temperature;BME280_humidity;BME280_pressure;Samples;Min_cycle;Max_cycle;Signal;HPM_P1;HPM_P2
2021/12/10 00:01:51;;;;;;;;;;;;;;;7.83;56.34;98829.22;4960511;28;7306;-75
2021/12/10 00:04:29;;;;;;;;;;;;;;;7.78;56.06;98817.22;4982350;28;7146;-75
2021/12/10 00:07:01;;;;;;;;;;;;;;;7.73;55.70;98817.88;4962616;28;6824;-76
2021/12/10 00:09:42;;;;;;;;;;;;;;;7.69;56.42;98818.56;4979559;28;7108;-75
2021/12/10 00:12:20;;;;;;;;;;;;;;;7.64;56.55;98816.75;4944415;28;7064;-75
2021/12/10 00:14:47;;;;;;;;;;;;;;;7.59;56.45;98807.19;4977629;28;7102;-75
2021/12/10 00:17:15;;;;;;;;;;;;;;;7.55;55.91;98793.47;4961637;28;7176;-75
2021/12/10 00:19:50;;;;;;;;;;;;;;;7.51;56.66;98791.63;4944802;28;7270;-75
2021/12/10 00:22:39;;;;;;;;;;;;;;;7.49;56.54;98783.94;4977199;28;7236;-75
2021/12/10 00:25:17;;;;;;;;;;;;;;;7.47;56.41;98782.13;4976847;28;7150;-75
2021/12/10 00:27:46;;;;;;;;;;;;;;;7.45;56.10;98768.47;4975363;28;7043;-75
2021/12/10 00:30:44;;;;;;;;;;;;;;;7.47;57.11;98769.38;4977959;28;6812;-75
2021/12/10 00:33:20;;;;;;;;;;;;;;;7.48;56.94;98761.81;4976862;28;6824;-75
2021/12/10 00:35:47;;;;;;;;;;;;;;;7.51;56.60;98753.38;4976094;28;11072;-75
2021/12/10 00:38:14;;;;;;;;;;;;;;;7.51;56.49;98745.72;4961677;28;7137;-75
2021/12/10 00:40:42;;;;;;;;;;;;;;;7.50;56.17;98738.88;4957114;28;7006;-75
2021/12/10 00:43:08;;;;;;;;;;;;;;;7.48;56.65;98727.78;4978031;28;6815;-75
2021/12/10 00:45:34;;;;;;;;;;;;;;;7.46;55.92;98732.81;4976732;28;6800;-75
2021/12/10 00:48:01;;;;;;;;;;;;;;;7.42;56.51;98715.69;4977278;28;6949;-75
2021/12/10 00:50:38;;;;;;;;;;;;;;;7.39;56.36;98709.63;4980071;28;6804;-75
2021/12/10 00:53:04;;;;;;;;;;;;;;;7.35;56.12;98709.53;4964365;28;6910;-75
2021/12/10 00:55:30;;;;;;;;;;;;;;;7.30;55.81;98700.84;4981436;28;7149;-75
2021/12/10 00:57:58;;;;;;;;;;;;;;;7.25;56.34;98686.22;4965056;28;7200;-75
2021/12/10 01:00:31;;;;;;;;;;;;;;;7.22;56.42;98686.97;4964504;28;6792;-75
2021/12/10 01:02:57;;;;;;;;;;;;;;;7.16;56.19;98677.44;4979389;28;6862;-75
2021/12/10 01:05:24;;;;;;;;;;;;;;;7.14;56.47;98674.00;4979976;28;7279;-75
2021/12/10 01:07:51;;;;;;;;;;;;;;;7.11;56.00;98657.72;4980713;28;7125;-75
2021/12/10 01:10:40;;;;;;;;;;;;;;;7.07;56.39;98647.44;4964139;28;7224;-75
2021/12/10 01:13:11;;;;;;;;;;;;;;;7.06;56.71;98647.38;4976196;28;6991;-75
2021/12/10 01:24:53;;;;;;;;;;;;;;;7.09;55.93;98619.44;4984446;28;6904;-75
2021/12/10 01:27:24;;;;;;;;;;;;;;;7.09;56.12;98620.34;4974693;28;7003;-75
2021/12/10 01:29:56;;;;;;;;;;;;;;;7.11;55.97;98619.50;4976766;28;9328;-75
2021/12/10 01:32:38;;;;;;;;;;;;;;;7.11;56.42;98616.97;4964492;28;7299;-75
2021/12/10 01:35:13;;;;;;;;;;;;;;;7.09;55.80;98607.59;4974036;28;6811;-75
2021/12/10 01:37:39;;;;;;;;;;;;;;;7.09;55.79;98593.97;4976738;28;7329;-75
2021/12/10 01:40:08;;;;;;;;;;;;;;;7.06;55.90;98582.03;4973223;28;6796;-75
2021/12/10 01:42:53;;;;;;;;;;;;;;;7.05;56.05;98582.84;4974525;28;7240;-75
2021/12/10 01:45:30;;;;;;;;;;;;;;;7.04;56.19;98567.50;4975176;28;7132;-75
2021/12/10 01:48:10;;;;;;;;;;;;;;;7.03;56.35;98560.69;4955446;28;7187;-75
2021/12/10 01:50:37;;;;;;;;;;;;;;;7.02;55.87;98558.94;4958383;28;6836;-75
2021/12/10 01:53:13;;;;;;;;;;;;;;;7.01;56.04;98555.53;4958923;28;7013;-75
2021/12/10 01:55:45;;;;;;;;;;;;;;;7.00;55.98;98541.06;4973168;28;7248;-75
2021/12/10 01:58:28;;;;;;;;;;;;;;;7.00;56.04;98542.72;4990336;28;7000;-75
2021/12/10 02:01:12;;;;;;;;;;;;;;;7.00;56.09;98538.50;4974810;28;6970;-75
2021/12/10 02:03:40;;;;;;;;;;;;;;;6.99;55.80;98528.25;4959512;28;7190;-75
2021/12/10 02:06:08;;;;;;;;;;;;;;;6.95;55.50;98529.84;4958923;28;6811;-75
2021/12/10 02:08:35;;;;;;;;;;;;;;;6.94;55.51;98528.09;4973389;28;6792;-75
2021/12/10 02:11:03;;;;;;;;;;;;;;;6.93;56.12;98526.38;4977914;28;7204;-75
2021/12/10 02:13:29;;;;;;;;;;;;;;;6.92;55.74;98517.00;4958923;28;6812;-75
2021/12/10 02:15:55;;;;;;;;;;;;;;;6.89;56.23;98505.03;4971938;28;7180;-75
2021/12/10 02:18:21;;;;;;;;;;;;;;;6.88;55.62;98508.41;4973672;28;6796;-75
2021/12/10 02:21:02;;;;;;;;;;;;;;;6.87;56.33;98504.13;4974364;28;7246;-75
2021/12/10 02:23:41;;;;;;;;;;;;;;;6.85;55.94;98497.25;4977069;28;7092;-75
2021/12/10 02:26:13;;;;;;;;;;;;;;;6.86;56.21;98504.94;4972870;28;7569;-75
2021/12/10 02:28:42;;;;;;;;;;;;;;;6.88;56.12;98492.28;4984488;28;6816;-75
2021/12/10 02:31:11;;;;;;;;;;;;;;;6.90;56.04;98490.63;4988552;28;6831;-75
2021/12/10 02:33:38;;;;;;;;;;;;;;;6.90;56.45;98486.38;4973111;28;7226;-75
2021/12/10 02:36:10;;;;;;;;;;;;;;;6.91;55.68;98487.28;4954907;28;6824;-75
2021/12/10 02:38:41;;;;;;;;;;;;;;;6.91;55.92;98483.06;4974065;28;7049;-75
2021/12/10 02:41:07;;;;;;;;;;;;;;;6.89;56.31;98473.63;4974682;28;7230;-75
2021/12/10 02:43:33;;;;;;;;;;;;;;;6.88;56.21;98472.75;4973714;28;7005;-75
2021/12/10 02:45:59;;;;;;;;;;;;;;;6.86;56.16;98458.25;4973902;28;6943;-75
2021/12/10 02:48:25;;;;;;;;;;;;;;;6.85;56.08;98459.06;4957777;28;7178;-75
2021/12/10 02:50:55;;;;;;;;;;;;;;;6.84;56.02;98454.78;4958064;28;6973;-75
2021/12/10 02:53:27;;;;;;;;;;;;;;;6.80;56.18;98454.69;4973350;28;6823;-75
2021/12/10 02:55:53;;;;;;;;;;;;;;;6.79;56.30;98444.44;4973497;28;7033;-75
2021/12/10 02:58:20;;;;;;;;;;;;;;;6.79;55.88;98436.81;4974107;28;6823;-75
2021/12/10 03:00:56;;;;;;;;;;;;;;;6.78;56.08;98440.19;4973881;28;7220;-75
2021/12/10 03:03:22;;;;;;;;;;;;;;;6.76;56.13;98435.06;4974115;28;7296;-75
2021/12/10 03:05:49;;;;;;;;;;;;;;;6.75;56.22;98438.38;4958206;28;6803;-75
2021/12/10 03:08:16;;;;;;;;;;;;;;;6.74;56.21;98423.09;4958276;28;6805;-75
2021/12/10 03:10:42;;;;;;;;;;;;;;;6.72;56.11;98415.38;4975608;28;7001;-75
2021/12/10 03:13:10;;;;;;;;;;;;;;;6.73;56.08;98423.91;4974664;28;7119;-75
2021/12/10 03:15:37;;;;;;;;;;;;;;;6.72;56.44;98417.09;4976760;28;6895;-75
2021/12/10 03:18:15;;;;;;;;;;;;;;;6.75;56.78;98410.38;4974308;28;6984;-75
2021/12/10 03:20:41;;;;;;;;;;;;;;;6.77;56.39;98403.69;4971711;28;7228;-75
2021/12/10 03:23:07;;;;;;;;;;;;;;;6.80;56.55;98393.56;4958367;28;6812;-75
2021/12/10 03:25:33;;;;;;;;;;;;;;;6.85;56.23;98395.38;4970871;28;6816;-75
2021/12/10 03:28:00;;;;;;;;;;;;;;;6.88;55.96;98392.97;4975283;28;6808;-75
2021/12/10 03:30:36;;;;;;;;;;;;;;;6.92;56.75;98389.66;4975746;28;7179;-75
2021/12/10 03:33:02;;;;;;;;;;;;;;;6.94;56.43;98383.81;4978084;28;7257;-75
2021/12/10 03:35:42;;;;;;;;;;;;;;;6.96;55.74;98378.78;4957737;28;6995;-75
2021/12/10 03:38:24;;;;;;;;;;;;;;;6.93;55.79;98371.91;4960353;28;6816;-75
2021/12/10 03:40:52;;;;;;;;;;;;;;;6.92;56.20;98366.75;4963963;28;6824;-75
2021/12/10 03:43:19;;;;;;;;;;;;;;;6.90;55.77;98366.69;4975204;28;6831;-75
2021/12/10 03:45:52;;;;;;;;;;;;;;;6.87;56.39;98350.50;4957828;28;7120;-75
2021/12/10 03:48:25;;;;;;;;;;;;;;;6.86;56.36;98357.25;4972928;28;7283;-74
2021/12/10 03:50:53;;;;;;;;;;;;;;;6.86;56.49;98352.16;4977544;28;7179;-74
2021/12/10 03:53:19;;;;;;;;;;;;;;;6.88;56.44;98352.22;4957604;28;7023;-74
2021/12/10 03:55:47;;;;;;;;;;;;;;;6.88;56.64;98336.94;4960442;28;6988;-75
2021/12/10 03:58:15;;;;;;;;;;;;;;;6.88;55.92;98335.22;4975039;28;6984;-74
2021/12/10 04:00:47;;;;;;;;;;;;;;;6.90;56.58;98332.75;4974641;28;6900;-74
2021/12/10 04:03:17;;;;;;;;;;;;;;;6.93;56.90;98322.63;4973489;28;6888;-73
2021/12/10 04:05:43;;;;;;;;;;;;;;;6.97;56.67;98324.47;4958037;28;7912;-73
2021/12/10 04:08:09;;;;;;;;;;;;;;;7.03;56.22;98309.34;4973648;28;8054;-73
2021/12/10 04:10:36;;;;;;;;;;;;;;;7.07;56.84;98305.19;4956763;28;6804;-73
2021/12/10 04:13:04;;;;;;;;;;;;;;;7.12;56.34;98303.66;4975292;28;7047;-73
2021/12/10 04:15:30;;;;;;;;;;;;;;;7.18;56.91;98300.41;4974953;28;7050;-73
2021/12/10 04:17:58;;;;;;;;;;;;;;;7.21;56.07;98297.94;4975540;28;6780;-73
2021/12/10 04:20:28;;;;;;;;;;;;;;;7.27;56.74;98295.56;4974207;28;7311;-73
2021/12/10 04:22:55;;;;;;;;;;;;;;;7.32;56.47;98285.50;4965584;28;7010;-73
2021/12/10 04:25:24;;;;;;;;;;;;;;;7.35;56.13;98276.25;4958092;28;6796;-73
2021/12/10 04:27:57;;;;;;;;;;;;;;;7.39;55.90;98277.22;4974193;28;7137;-74
2021/12/10 04:30:24;;;;;;;;;;;;;;;7.42;55.77;98277.28;4973540;28;6819;-74
2021/12/10 04:32:51;;;;;;;;;;;;;;;7.44;55.66;98270.53;4960772;28;6824;-73
2021/12/10 04:35:18;;;;;;;;;;;;;;;7.47;55.81;98265.50;4958662;28;6800;-73
2021/12/10 04:37:49;;;;;;;;;;;;;;;7.48;56.29;98258.72;4959134;28;7348;-73
2021/12/10 04:40:18;;;;;;;;;;;;;;;7.48;56.17;98261.28;4978166;28;6824;-73
2021/12/10 04:42:45;;;;;;;;;;;;;;;7.47;55.24;98259.56;4973226;28;7178;-73
2021/12/10 04:45:14;;;;;;;;;;;;;;;7.45;55.70;98248.47;4977029;28;7256;-73
2021/12/10 04:47:42;;;;;;;;;;;;;;;7.44;55.41;98239.09;4959234;28;6989;-73
2021/12/10 04:50:11;;;;;;;;;;;;;;;7.42;55.93;98244.16;4975363;28;7892;-73
2021/12/10 04:52:37;;;;;;;;;;;;;;;7.41;56.11;98244.97;4975326;28;7106;-73
2021/12/10 04:55:07;;;;;;;;;;;;;;;7.40;55.71;98229.63;4976272;28;6792;-73
2021/12/10 04:57:33;;;;;;;;;;;;;;;7.40;55.83;98227.97;4974676;28;6852;-73
2021/12/10 04:59:59;;;;;;;;;;;;;;;7.42;56.39;98221.22;4974420;28;6973;-73
2021/12/10 05:02:25;;;;;;;;;;;;;;;7.45;56.01;98212.78;4968490;28;7276;-73
2021/12/10 05:04:56;;;;;;;;;;;;;;;7.49;55.41;98209.47;4971635;28;6804;-73
2021/12/10 05:07:23;;;;;;;;;;;;;;;7.55;56.24;98203.66;4975345;28;7159;-73
2021/12/10 05:09:49;;;;;;;;;;;;;;;7.60;55.40;98195.31;4972139;28;7023;-73
2021/12/10 05:12:14;;;;;;;;;;;;;;;7.64;55.81;98186.03;4975806;28;7197;-73
2021/12/10 05:14:41;;;;;;;;;;;;;;;7.68;55.58;98192.97;4973800;28;7222;-73
2021/12/10 05:17:10;;;;;;;;;;;;;;;7.73;55.50;98193.91;4973527;28;6828;-73
2021/12/10 05:19:39;;;;;;;;;;;;;;;7.75;55.10;98176.97;4971795;28;6989;-73
2021/12/10 05:22:10;;;;;;;;;;;;;;;7.78;56.32;98186.38;4974428;28;7027;-73
2021/12/10 05:24:36;;;;;;;;;;;;;;;7.82;55.07;98177.97;4972794;28;7912;-73
2021/12/10 05:27:03;;;;;;;;;;;;;;;7.85;55.54;98180.59;4972038;28;6811;-73
2021/12/10 05:29:29;;;;;;;;;;;;;;;7.88;55.01;98185.75;4973908;28;6796;-73
2021/12/10 05:31:58;;;;;;;;;;;;;;;7.90;55.31;98175.59;4957556;28;7961;-73
2021/12/10 05:34:25;;;;;;;;;;;;;;;7.91;55.58;98164.56;4972563;28;7872;-74
2021/12/10 05:36:52;;;;;;;;;;;;;;;7.89;55.30;98164.53;4974691;28;9604;-74
2021/12/10 05:39:22;;;;;;;;;;;;;;;7.89;55.34;98161.13;4976189;28;6804;-73
2021/12/10 05:41:47;;;;;;;;;;;;;;;7.87;54.89;98153.44;4974939;28;7178;-73
2021/12/10 05:44:13;;;;;;;;;;;;;;;7.85;55.60;98144.91;4990357;28;7476;-73
2021/12/10 05:46:39;;;;;;;;;;;;;;;7.83;55.49;98141.47;4974656;28;6792;-73
2021/12/10 05:49:07;;;;;;;;;;;;;;;7.80;55.62;98136.25;4974059;28;7274;-73
2021/12/10 05:51:35;;;;;;;;;;;;;;;7.78;54.93;98140.47;4974566;28;7015;-73
2021/12/10 05:54:01;;;;;;;;;;;;;;;7.75;55.51;98127.66;4974074;28;6812;-73
2021/12/10 05:56:26;;;;;;;;;;;;;;;7.73;55.16;98119.13;4976014;28;6819;-73
2021/12/10 05:58:52;;;;;;;;;;;;;;;7.72;55.21;98122.47;4955642;28;6883;-73
2021/12/10 06:01:20;;;;;;;;;;;;;;;7.72;55.22;98112.28;4974658;28;7115;-73
2021/12/10 06:03:53;;;;;;;;;;;;;;;7.69;56.20;98108.00;4970021;28;7300;-73
2021/12/10 06:06:29;;;;;;;;;;;;;;;7.69;56.32;98102.88;4985991;28;6819;-73
2021/12/10 06:08:57;;;;;;;;;;;;;;;7.71;56.16;98102.91;4971112;28;6823;-73
2021/12/10 06:11:25;;;;;;;;;;;;;;;7.72;54.87;98102.94;4967517;28;7130;-73
2021/12/10 06:13:52;;;;;;;;;;;;;;;7.74;55.42;98096.19;4972066;28;6800;-73
2021/12/10 06:16:18;;;;;;;;;;;;;;;7.76;55.96;98091.97;4971153;28;7031;-73
2021/12/10 06:18:47;;;;;;;;;;;;;;;7.80;55.86;98095.47;4968586;28;7849;-73
2021/12/10 06:21:13;;;;;;;;;;;;;;;7.83;55.75;98092.13;4972931;28;6883;-73
2021/12/10 06:23:39;;;;;;;;;;;;;;;7.85;55.88;98087.91;4954944;28;6897;-73
2021/12/10 06:26:06;;;;;;;;;;;;;;;7.85;55.11;98078.59;4970701;28;7167;-73
2021/12/10 06:28:33;;;;;;;;;;;;;;;7.87;55.16;98082.03;4971525;28;7219;-73
2021/12/10 06:30:59;;;;;;;;;;;;;;;7.91;54.29;98082.94;4966960;28;6824;-73
2021/12/10 06:33:28;;;;;;;;;;;;;;;7.94;54.71;98077.06;4952165;28;7941;-73
2021/12/10 06:35:57;;;;;;;;;;;;;;;7.95;55.29;98077.06;4972099;28;6849;-73
2021/12/10 06:38:24;;;;;;;;;;;;;;;7.97;54.16;98079.66;4972435;28;6804;-73
2021/12/10 06:40:52;;;;;;;;;;;;;;;7.98;54.54;98078.84;4969645;28;7143;-73
2021/12/10 06:43:20;;;;;;;;;;;;;;;7.99;54.57;98081.44;4971036;28;7016;-73
2021/12/10 06:45:48;;;;;;;;;;;;;;;7.99;54.05;98081.44;4969542;28;7411;-73
2021/12/10 06:48:18;;;;;;;;;;;;;;;8.02;54.86;98083.19;4967835;28;7067;-73
2021/12/10 06:50:49;;;;;;;;;;;;;;;8.02;55.12;98083.19;4971204;28;6947;-73
2021/12/10 06:53:19;;;;;;;;;;;;;;;8.03;54.04;98078.09;4973491;28;7311;-73
2021/12/10 06:55:46;;;;;;;;;;;;;;;8.05;53.79;98081.53;4972909;28;6815;-73
2021/12/10 06:58:12;;;;;;;;;;;;;;;8.08;53.91;98078.19;4970444;28;8473;-73
2021/12/10 07:00:55;;;;;;;;;;;;;;;8.11;53.56;98075.72;4974285;28;7312;-73
2021/12/10 07:03:27;;;;;;;;;;;;;;;8.13;54.01;98079.16;4975384;28;7267;-73
2021/12/10 07:05:58;;;;;;;;;;;;;;;8.15;53.85;98071.53;4974459;28;6816;-73
2021/12/10 07:08:27;;;;;;;;;;;;;;;8.16;54.30;98081.78;4979410;28;6824;-73
2021/12/10 07:10:55;;;;;;;;;;;;;;;8.17;54.69;98070.72;4972467;28;6979;-73
2021/12/10 07:13:21;;;;;;;;;;;;;;;8.20;54.14;98081.00;4974840;28;6812;-73
2021/12/10 07:15:49;;;;;;;;;;;;;;;8.21;54.10;98079.31;4969644;28;7260;-73
2021/12/10 07:18:19;;;;;;;;;;;;;;;8.23;53.17;98087.00;4974241;28;6820;-73
2021/12/10 07:20:46;;;;;;;;;;;;;;;8.25;53.17;98077.69;4990793;28;7916;-73
2021/12/10 07:23:13;;;;;;;;;;;;;;;8.24;53.58;98078.53;4969538;28;7043;-73
2021/12/10 07:25:39;;;;;;;;;;;;;;;8.24;54.42;98076.81;4975320;28;6994;-73
2021/12/10 07:28:05;;;;;;;;;;;;;;;8.24;53.87;98069.16;4974529;28;6964;-73
2021/12/10 07:30:34;;;;;;;;;;;;;;;8.24;53.23;98070.88;4974385;28;6879;-73
2021/12/10 07:33:00;;;;;;;;;;;;;;;8.25;52.91;98065.78;4978059;28;6799;-73
2021/12/10 07:35:26;;;;;;;;;;;;;;;8.25;53.36;98070.03;4973672;28;7241;-73
2021/12/10 07:37:53;;;;;;;;;;;;;;;8.25;53.04;98075.13;4971187;28;6975;-73
2021/12/10 07:40:23;;;;;;;;;;;;;;;8.25;53.64;98072.59;4973510;28;6801;-73
2021/12/10 07:42:49;;;;;;;;;;;;;;;8.25;53.77;98067.47;4971391;28;6804;-73
2021/12/10 07:45:16;;;;;;;;;;;;;;;8.22;54.15;98069.97;4974398;28;6800;-73
2021/12/10 07:47:44;;;;;;;;;;;;;;;8.20;53.87;98065.69;4975626;28;7237;-73
2021/12/10 07:50:20;;;;;;;;;;;;;;;8.18;53.52;98061.41;4975534;28;6800;-73
2021/12/10 07:52:46;;;;;;;;;;;;;;;8.15;53.75;98058.75;4973660;28;7198;-73
2021/12/10 07:55:16;;;;;;;;;;;;;;;8.11;54.13;98055.31;4971832;28;7007;-74
2021/12/10 07:57:43;;;;;;;;;;;;;;;8.06;53.28;98051.81;4974462;28;6981;-74
2021/12/10 08:00:15;;;;;;;;;;;;;;;8.00;54.22;98052.53;4971299;28;6804;-73
2021/12/10 08:02:41;;;;;;;;;;;;;;;7.95;54.88;98049.00;4977128;28;6961;-73
2021/12/10 08:05:08;;;;;;;;;;;;;;;7.89;53.73;98048.91;4975104;28;6880;-73
2021/12/10 08:07:34;;;;;;;;;;;;;;;7.83;54.82;98053.88;4971609;28;6800;-73
2021/12/10 08:10:00;;;;;;;;;;;;;;;7.79;54.36;98052.94;4972238;28;6848;-73
2021/12/10 08:12:26;;;;;;;;;;;;;;;7.76;54.74;98050.34;4971059;28;6911;-73
2021/12/10 08:14:55;;;;;;;;;;;;;;;7.73;54.38;98050.28;4960574;28;7062;-73
2021/12/10 08:17:23;;;;;;;;;;;;;;;7.69;54.77;98057.00;4972682;28;6815;-73
2021/12/10 08:19:51;;;;;;;;;;;;;;;7.66;55.62;98062.00;4975307;28;7385;-73
2021/12/10 08:22:17;;;;;;;;;;;;;;;7.66;55.49;98058.63;4976571;28;7039;-73
2021/12/10 08:24:43;;;;;;;;;;;;;;;7.64;55.55;98056.91;4976628;28;7346;-73
2021/12/10 08:27:11;;;;;;;;;;;;;;;7.65;55.05;98060.28;4971960;28;7829;-73
2021/12/10 08:29:37;;;;;;;;;;;;;;;7.66;55.11;98053.50;4974703;28;6812;-73
2021/12/10 08:32:03;;;;;;;;;;;;;;;7.68;56.11;98060.38;4976059;28;6776;-73
2021/12/10 08:34:30;;;;;;;;;;;;;;;7.70;55.38;98052.75;4975910;28;6800;-73
2021/12/10 08:36:57;;;;;;;;;;;;;;;7.73;55.30;98051.13;4959029;28;6820;-73
2021/12/10 08:39:23;;;;;;;;;;;;;;;7.75;55.09;98057.09;4947464;28;7065;-73
2021/12/10 08:41:49;;;;;;;;;;;;;;;7.79;55.83;98045.28;4956227;28;6820;-73
2021/12/10 08:44:15;;;;;;;;;;;;;;;7.83;55.78;98043.66;4976432;28;7027;-73
2021/12/10 08:46:44;;;;;;;;;;;;;;;7.88;55.38;98037.00;4973948;28;7003;-73
2021/12/10 08:49:11;;;;;;;;;;;;;;;7.94;55.98;98043.91;4977415;28;6815;-73
2021/12/10 08:51:42;;;;;;;;;;;;;;;8.00;56.14;98041.47;4965007;28;7182;-73
2021/12/10 08:54:10;;;;;;;;;;;;;;;8.06;55.75;98041.59;4977419;28;7165;-73
2021/12/10 08:56:37;;;;;;;;;;;;;;;8.13;55.11;98037.47;4975217;28;7148;-73
2021/12/10 08:59:06;;;;;;;;;;;;;;;8.18;56.00;98041.00;4983946;28;7007;-73
2021/12/10 09:01:37;;;;;;;;;;;;;;;8.24;55.58;98033.44;4974128;28;6844;-73
2021/12/10 09:04:06;;;;;;;;;;;;;;;8.32;55.23;98043.81;4981192;28;6819;-73
2021/12/10 09:06:35;;;;;;;;;;;;;;;8.36;55.61;98044.72;4973428;28;6816;-73
2021/12/10 09:09:02;;;;;;;;;;;;;;;8.40;54.83;98037.16;4972034;28;6895;-73
2021/12/10 09:11:28;;;;;;;;;;;;;;;8.44;54.93;98036.38;4956286;28;6944;-73
2021/12/10 09:13:55;;;;;;;;;;;;;;;8.47;54.27;98041.53;4973490;28;6803;-73
2021/12/10 09:16:27;;;;;;;;;;;;;;;8.53;54.27;98042.50;4958280;28;7119;-73
2021/12/10 09:18:58;;;;;;;;;;;;;;;8.55;54.54;98040.84;4955245;28;7058;-73
2021/12/10 09:21:25;;;;;;;;;;;;;;;8.57;54.53;98047.72;4973040;28;7970;-73
2021/12/10 09:23:53;;;;;;;;;;;;;;;8.62;53.85;98058.00;4956058;28;7332;-73
2021/12/10 09:26:23;;;;;;;;;;;;;;;8.64;53.67;98055.47;4974518;28;7112;-73
2021/12/10 09:28:49;;;;;;;;;;;;;;;8.67;53.48;98056.38;4968546;28;7317;-73
2021/12/10 09:31:15;;;;;;;;;;;;;;;8.69;54.35;98057.28;4973228;28;6791;-73
2021/12/10 09:33:43;;;;;;;;;;;;;;;8.70;54.05;98064.13;4969332;28;6808;-73
2021/12/10 09:36:09;;;;;;;;;;;;;;;8.71;53.32;98057.28;4972313;28;6842;-73
2021/12/10 09:38:35;;;;;;;;;;;;;;;8.71;54.48;98060.72;4973678;28;6796;-73
2021/12/10 09:41:05;;;;;;;;;;;;;;;8.74;53.60;98063.31;4974006;28;6792;-73
2021/12/10 09:43:33;;;;;;;;;;;;;;;8.77;54.12;98064.19;4974694;28;6895;-73
2021/12/10 09:46:00;;;;;;;;;;;;;;;8.79;53.46;98071.06;4954053;28;7331;-73
2021/12/10 09:48:27;;;;;;;;;;;;;;;8.81;53.99;98064.28;4980967;28;6807;-73
2021/12/10 09:51:18;;;;;;;;;;;;;;;8.84;53.11;98060.94;4974803;28;7145;-73
2021/12/10 09:53:48;;;;;;;;;;;;;;;8.84;53.92;98066.03;4972764;28;6837;-73
2021/12/10 09:56:17;;;;;;;;;;;;;;;8.83;53.78;98057.50;4973572;28;6986;-73
2021/12/10 09:58:43;;;;;;;;;;;;;;;8.83;53.62;98061.75;4972619;28;6800;-73
2021/12/10 10:01:22;;;;;;;;;;;;;;;8.82;53.71;98057.50;4974917;28;6799;-73
2021/12/10 10:03:52;;;;;;;;;;;;;;;8.80;53.49;98054.91;4954854;28;7173;-73
2021/12/10 10:06:19;;;;;;;;;;;;;;;8.80;53.35;98051.50;4970158;28;6903;-73
2021/12/10 10:08:46;;;;;;;;;;;;;;;8.81;53.08;98054.06;4972613;28;7127;-73
2021/12/10 10:11:24;;;;;;;;;;;;;;;8.83;53.75;98051.56;4972731;28;6816;-73
2021/12/10 10:13:56;;;;;;;;;;;;;;;8.83;53.32;98046.44;4970767;28;6904;-73
2021/12/10 10:16:24;;;;;;;;;;;;;;;8.83;54.23;98042.19;4978799;28;7234;-73
2021/12/10 10:18:51;;;;;;;;;;;;;;;8.83;54.06;98044.72;4972829;28;6884;-73
2021/12/10 10:21:30;;;;;;;;;;;;;;;8.83;53.33;98041.34;4954628;28;7007;-73
2021/12/10 10:23:57;;;;;;;;;;;;;;;8.80;53.34;98047.25;4964916;28;6987;-73
2021/12/10 10:26:32;;;;;;;;;;;;;;;8.75;52.69;98041.22;4967898;28;6800;-73
2021/12/10 10:29:13;;;;;;;;;;;;;;;8.64;53.30;98046.13;4970351;28;6820;-73
2021/12/10 10:31:51;;;;;;;;;;;;;;;8.52;53.36;98049.31;4967365;28;6902;-73
2021/12/10 10:34:19;;;;;;;;;;;;;;;8.43;53.96;98044.88;4970389;28;6831;-73
2021/12/10 10:36:45;;;;;;;;;;;;;;;8.38;54.14;98049.00;4972231;28;6796;-73
2021/12/10 10:39:20;;;;;;;;;;;;;;;8.32;54.81;98046.34;4988167;28;7340;-73
2021/12/10 10:41:54;;;;;;;;;;;;;;;8.27;54.17;98051.38;4971537;28;7204;-73
2021/12/10 10:44:21;;;;;;;;;;;;;;;8.22;55.06;98047.00;4973971;28;7200;-73
2021/12/10 10:46:49;;;;;;;;;;;;;;;8.16;54.83;98053.69;4970477;28;6879;-73
2021/12/10 10:49:48;;;;;;;;;;;;;;;8.12;54.23;98048.50;4969026;28;6804;-73
2021/12/10 10:52:28;;;;;;;;;;;;;;;8.07;54.49;98045.88;4972922;28;7154;-73
2021/12/10 10:55:15;;;;;;;;;;;;;;;8.06;55.08;98049.25;4975166;28;7019;-73
2021/12/10 10:58:01;;;;;;;;;;;;;;;8.08;55.96;98049.28;4974193;28;7331;-73
2021/12/10 11:00:46;;;;;;;;;;;;;;;8.05;56.08;98050.91;4977192;28;6816;-73
2021/12/10 11:03:23;;;;;;;;;;;;;;;8.04;56.08;98048.38;4976452;28;7739;-72
2021/12/10 11:05:57;;;;;;;;;;;;;;;8.03;56.01;98049.19;4974867;28;6820;-72
2021/12/10 11:08:38;;;;;;;;;;;;;;;8.03;55.34;98051.75;4973738;28;6811;-72
2021/12/10 11:11:23;;;;;;;;;;;;;;;8.03;55.86;98049.19;4993143;28;6824;-72
2021/12/10 11:14:10;;;;;;;;;;;;;;;8.01;55.70;98049.16;4971534;28;8228;-72
2021/12/10 11:16:41;;;;;;;;;;;;;;;7.98;56.40;98050.78;4974131;28;7093;-72
2021/12/10 11:19:18;;;;;;;;;;;;;;;7.95;55.65;98058.38;4972137;28;7223;-72
2021/12/10 11:21:53;;;;;;;;;;;;;;;7.91;56.15;98057.44;4975420;28;7189;-72
2021/12/10 11:24:31;;;;;;;;;;;;;;;7.87;55.55;98061.63;4973475;28;6823;-72
2021/12/10 11:27:05;;;;;;;;;;;;;;;7.86;55.63;98062.44;4978306;28;6824;-72
2021/12/10 11:29:53;;;;;;;;;;;;;;;7.86;55.94;98069.22;4975560;28;6978;-72
2021/12/10 11:32:50;;;;;;;;;;;;;;;7.86;56.29;98064.13;4976376;28;6792;-72
2021/12/10 11:35:28;;;;;;;;;;;;;;;7.88;56.67;98063.34;4976002;28;7090;-72
2021/12/10 11:38:34;;;;;;;;;;;;;;;7.92;56.43;98062.59;4960418;28;7071;-72
2021/12/10 11:41:15;;;;;;;;;;;;;;;7.95;56.94;98060.94;4976751;28;7306;-72
2021/12/10 11:44:17;;;;;;;;;;;;;;;7.98;57.04;98061.84;4977392;28;6816;-72
2021/12/10 11:47:02;;;;;;;;;;;;;;;8.01;57.08;98069.56;4977107;28;6815;-72
2021/12/10 11:49:38;;;;;;;;;;;;;;;8.01;56.64;98064.47;4961885;28;6824;-72
2021/12/10 11:52:11;;;;;;;;;;;;;;;8.01;56.28;98084.88;4974097;28;6840;-72
2021/12/10 11:54:44;;;;;;;;;;;;;;;8.05;56.34;98078.97;4975776;28;6827;-72
2021/12/10 11:57:29;;;;;;;;;;;;;;;8.08;56.64;98078.19;4975398;28;6907;-72
2021/12/10 12:00:11;;;;;;;;;;;;;;;8.12;57.49;98076.56;4975567;28;6820;-73
2021/12/10 12:02:50;;;;;;;;;;;;;;;8.16;56.86;98078.34;4978229;28;7146;-73
2021/12/10 12:05:25;;;;;;;;;;;;;;;8.22;56.95;98078.47;4974961;28;6980;-72
2021/12/10 12:07:58;;;;;;;;;;;;;;;8.24;56.42;98075.97;4977215;28;6812;-72
2021/12/10 12:10:38;;;;;;;;;;;;;;;8.26;56.51;98079.41;4959617;28;6828;-72
2021/12/10 12:13:21;;;;;;;;;;;;;;;8.25;57.58;98078.53;4959769;28;6900;-72
2021/12/10 12:15:51;;;;;;;;;;;;;;;8.28;57.62;98080.28;4974444;28;7873;-72
2021/12/10 12:18:30;;;;;;;;;;;;;;;8.31;57.77;98081.22;4975531;28;6892;-72
2021/12/10 12:27:05;;;;;;;;;;;;;;;8.36;56.49;98091.50;4976481;28;7044;-72
2021/12/10 12:29:44;;;;;;;;;;;;;;;8.39;56.75;98089.00;4971379;28;6895;-73
2021/12/10 12:32:24;;;;;;;;;;;;;;;8.46;57.73;98090.03;4973841;28;6903;-73
2021/12/10 12:34:51;;;;;;;;;;;;;;;8.52;56.28;98092.69;4970059;28;7201;-73
2021/12/10 12:37:22;;;;;;;;;;;;;;;8.57;56.16;98095.34;4958100;28;6808;-73
2021/12/10 12:40:00;;;;;;;;;;;;;;;8.60;56.42;98092.88;4970878;28;6991;-73
2021/12/10 12:42:43;;;;;;;;;;;;;;;8.63;57.00;98098.03;4956473;28;7225;-73
2021/12/10 12:45:15;;;;;;;;;;;;;;;8.67;56.52;98092.13;4971306;28;6985;-73
2021/12/10 12:47:48;;;;;;;;;;;;;;;8.70;57.27;98097.31;4977732;28;7369;-73
2021/12/10 12:50:26;;;;;;;;;;;;;;;8.74;56.08;98099.06;4991612;28;6840;-73
2021/12/10 12:53:00;;;;;;;;;;;;;;;8.78;56.79;98094.88;4978139;28;7051;-73
2021/12/10 12:55:38;;;;;;;;;;;;;;;8.80;56.04;98100.03;4976556;28;6990;-72
2021/12/10 12:58:10;;;;;;;;;;;;;;;8.82;55.85;98109.44;4989097;28;6823;-72
2021/12/10 13:01:02;;;;;;;;;;;;;;;8.83;56.04;98103.47;4974640;28;7222;-73
2021/12/10 13:03:55;;;;;;;;;;;;;;;8.85;56.39;98106.94;4976283;28;7191;-73
2021/12/10 13:06:49;;;;;;;;;;;;;;;8.85;55.87;98113.75;4974374;28;7182;-73
2021/12/10 13:09:23;;;;;;;;;;;;;;;8.83;55.73;98118.81;4974816;28;6840;-73
2021/12/10 13:12:04;;;;;;;;;;;;;;;8.85;56.41;98127.38;4970401;28;7274;-73
2021/12/10 13:14:54;;;;;;;;;;;;;;;8.85;55.89;98127.38;4958674;28;6811;-73
2021/12/10 13:17:32;;;;;;;;;;;;;;;8.85;55.14;98123.94;4971044;28;6976;-72
2021/12/10 13:20:06;;;;;;;;;;;;;;;8.84;56.02;98135.00;4971414;28;6816;-72
2021/12/10 13:22:33;;;;;;;;;;;;;;;8.83;55.86;98135.84;4989696;28;7417;-73
2021/12/10 13:25:08;;;;;;;;;;;;;;;8.81;55.61;98140.06;4974607;28;7241;-73
2021/12/10 13:27:37;;;;;;;;;;;;;;;8.80;54.90;98141.75;4972450;28;6819;-73
2021/12/10 13:30:13;;;;;;;;;;;;;;;8.80;55.04;98144.31;4971686;28;7924;-73
2021/12/10 13:32:42;;;;;;;;;;;;;;;8.81;56.08;98150.28;4971022;28;6800;-73
2021/12/10 13:35:12;;;;;;;;;;;;;;;8.80;55.22;98146.84;4973383;28;6887;-73
2021/12/10 13:37:37;;;;;;;;;;;;;;;8.80;55.51;98154.53;4973235;28;6812;-73
2021/12/10 13:40:05;;;;;;;;;;;;;;;8.79;54.84;98157.91;4975642;28;6886;-73
2021/12/10 13:42:31;;;;;;;;;;;;;;;8.78;56.06;98155.31;4972331;28;7245;-73
2021/12/10 13:44:58;;;;;;;;;;;;;;;8.78;55.44;98158.75;4977376;28;6954;-73